Time;durP1;ratioP1;P1;durP2;ratioP2;P2;SDS_P1;SDS_P2;PMS_P1;PMS_P2;Temp;Humidity;BMP_temperature;BMP_pressure;BME280_temperature;BME280_humidity;BME280_pressure;Samples;Min_cycle;Max_cycle;Signal;HPM_P1;HPM_P2
2022/08/12 00:44:59;;;;;;;5.05;3.70;;;17.00;99.90;;;;;;4934421;29;20496;-79
2022/08/12 00:47:25;;;;;;;6.45;3.88;;;16.90;99.90;;;;;;4934998;29;20035;-80
2022/08/12 00:49:52;;;;;;;5.05;3.95;;;16.90;99.90;;;;;;4922499;29;20035;-80
2022/08/12 00:52:19;;;;;;;5.32;3.90;;;16.80;99.90;;;;;;4923520;29;20066;-80
2022/08/12 00:54:59;;;;;;;5.63;4.15;;;16.80;99.90;;;;;;4921146;29;20097;-79
2022/08/12 00:57:35;;;;;;;5.15;4.20;;;16.70;99.90;;;;;;4938107;29;20041;-80
2022/08/12 01:00:09;;;;;;;5.15;4.65;;;16.70;99.90;;;;;;4935839;29;20035;-80
2022/08/12 01:02:46;;;;;;;4.82;4.25;;;16.70;99.90;;;;;;4937811;29;20126;-80
2022/08/12 01:13:35;;;;;;;4.47;4.00;;;16.80;99.90;;;;;;4939058;29;20069;-80
2022/08/12 01:16:03;;;;;;;4.22;3.83;;;16.70;99.90;;;;;;4938880;29;20054;-80
2022/08/12 01:18:32;;;;;;;4.85;3.90;;;16.60;99.90;;;;;;4936934;29;20130;-79
2022/08/12 01:21:42;;;;;;;5.00;4.50;;;16.60;99.90;;;;;;4938650;29;20118;-79
2022/08/12 01:24:45;;;;;;;4.90;4.40;;;16.50;99.90;;;;;;4922681;29;20054;-79
2022/08/12 01:27:14;;;;;;;5.03;4.57;;;16.40;99.90;;;;;;4938258;29;20070;-79
2022/08/12 01:29:44;;;;;;;5.13;4.60;;;16.40;99.90;;;;;;4936968;29;20106;-80
2022/08/12 01:32:15;;;;;;;5.80;4.55;;;16.20;99.90;;;;;;4937646;29;20090;-79
2022/08/12 01:34:51;;;;;;;5.55;4.65;;;16.30;99.90;;;;;;4922240;29;20047;-80
2022/08/12 01:37:21;;;;;;;8.10;4.75;;;16.20;99.90;;;;;;4938344;29;20145;-80
2022/08/12 01:39:51;;;;;;;6.93;4.68;;;16.10;99.90;;;;;;4936454;29;20051;-79
2022/08/12 01:42:20;;;;;;;5.40;4.68;;;16.10;99.90;;;;;;4933889;29;20062;-79
2022/08/12 01:44:48;;;;;;;5.30;4.63;;;16.00;99.90;;;;;;4920801;29;20043;-80
2022/08/12 01:47:29;;;;;;;5.20;4.70;;;16.00;99.90;;;;;;4921922;29;20403;-79
2022/08/12 01:50:14;;;;;;;6.07;5.07;;;15.90;99.90;;;;;;4953930;29;20546;-79
2022/08/12 01:53:04;;;;;;;6.13;5.07;;;15.90;99.90;;;;;;4938168;29;20039;-79
2022/08/12 01:55:35;;;;;;;7.53;5.25;;;15.80;99.90;;;;;;4936460;29;20047;-79
2022/08/12 01:58:26;;;;;;;5.57;4.95;;;15.70;99.90;;;;;;4915377;28;20039;-79
2022/08/12 02:00:57;;;;;;;7.47;5.28;;;15.70;99.90;;;;;;4921972;29;20044;-79
2022/08/12 02:12:17;;;;;;;7.88;5.35;;;15.40;99.90;;;;;;4928349;29;20070;-79
2022/08/12 02:15:01;;;;;;;7.50;5.70;;;15.40;99.90;;;;;;4934509;29;20039;-79
2022/08/12 02:17:52;;;;;;;5.93;5.30;;;15.30;99.90;;;;;;4918351;29;20039;-79
2022/08/12 02:20:47;;;;;;;6.78;6.18;;;15.30;99.90;;;;;;4931539;29;20143;-79
2022/08/12 02:23:14;;;;;;;9.50;5.93;;;15.20;99.90;;;;;;4926938;29;20036;-79
2022/08/12 02:25:45;;;;;;;6.60;5.60;;;15.20;99.90;;;;;;4921080;29;20441;-79
2022/08/12 02:28:11;;;;;;;6.22;5.63;;;15.10;99.90;;;;;;4936291;29;20045;-79
2022/08/12 02:30:39;;;;;;;5.88;5.38;;;15.10;99.90;;;;;;4921737;29;20129;-79
2022/08/12 02:33:05;;;;;;;6.78;5.97;;;15.10;99.90;;;;;;4919961;29;20043;-79
2022/08/12 02:35:35;;;;;;;7.05;6.35;;;15.00;99.90;;;;;;4921444;29;20573;-79
2022/08/12 02:38:04;;;;;;;7.72;6.88;;;15.00;99.90;;;;;;4920302;29;20039;-79
2022/08/12 02:40:33;;;;;;;6.90;6.07;;;15.00;99.90;;;;;;4920289;29;20039;-79
2022/08/12 02:43:26;;;;;;;7.40;5.88;;;15.00;99.90;;;;;;4933293;29;20400;-79
2022/08/12 02:46:03;;;;;;;6.57;5.97;;;14.90;99.90;;;;;;4935294;29;20045;-79
2022/08/12 02:48:32;;;;;;;7.13;6.43;;;14.80;99.90;;;;;;4936051;29;20046;-79
2022/08/12 02:51:04;;;;;;;7.80;6.35;;;14.80;99.90;;;;;;4936955;29;20130;-79
2022/08/12 02:53:33;;;;;;;7.90;7.07;;;14.80;99.90;;;;;;4921281;29;20039;-79
2022/08/12 02:56:02;;;;;;;7.97;6.75;;;14.70;99.90;;;;;;4935392;29;20046;-79
2022/08/12 02:58:30;;;;;;;8.48;7.22;;;14.70;99.90;;;;;;4933806;29;20047;-79
2022/08/12 03:01:01;;;;;;;7.13;6.43;;;14.60;99.90;;;;;;4933991;29;20476;-79
2022/08/12 03:03:32;;;;;;;9.50;7.55;;;14.60;99.90;;;;;;4952794;29;20050;-79
2022/08/12 03:06:00;;;;;;;7.72;6.97;;;14.60;99.90;;;;;;4937161;29;20448;-79
2022/08/12 03:08:30;;;;;;;8.05;7.25;;;14.50;99.90;;;;;;4919737;29;20035;-79
2022/08/12 03:11:03;;;;;;;7.80;6.78;;;14.50;99.90;;;;;;4918240;29;20098;-79
2022/08/12 03:13:32;;;;;;;7.60;6.80;;;14.50;99.90;;;;;;4936102;29;20031;-79
2022/08/12 03:15:58;;;;;;;7.90;7.10;;;14.50;99.90;;;;;;4936915;29;20047;-79
2022/08/12 03:18:31;;;;;;;8.05;7.25;;;14.50;99.90;;;;;;4935446;29;20035;-79
2022/08/12 03:20:58;;;;;;;8.48;7.57;;;14.50;99.90;;;;;;4914157;29;20215;-79
2022/08/12 03:23:25;;;;;;;8.30;7.47;;;14.50;99.90;;;;;;4935692;29;20503;-79
2022/08/12 03:25:55;;;;;;;8.65;7.45;;;14.40;99.90;;;;;;4936366;29;20049;-79
2022/08/12 03:31:08;;;;;;;7.38;6.68;;;14.40;99.90;;;;;;4930289;29;20090;-79
2022/08/12 03:33:36;;;;;;;8.52;7.63;;;14.30;99.90;;;;;;4919847;29;20134;-79
2022/08/12 03:36:10;;;;;;;8.98;8.07;;;14.30;99.90;;;;;;4936426;29;20047;-79
2022/08/12 03:38:39;;;;;;;9.98;7.72;;;14.30;99.90;;;;;;4934634;29;20043;-79
2022/08/12 03:41:34;;;;;;;9.50;8.15;;;14.30;99.90;;;;;;4936278;29;20499;-79
2022/08/12 04:00:45;;;;;;;7.75;6.95;;;14.00;99.90;;;;;;4935076;29;20058;-79
2022/08/12 04:05:55;;;;;;;8.60;7.80;;;14.00;99.90;;;;;;4936170;29;20530;-79
2022/08/12 04:08:25;;;;;;;8.60;7.80;;;13.90;99.90;;;;;;4934594;29;20035;-79
2022/08/12 04:13:37;;;;;;;8.13;7.32;;;13.80;99.90;;;;;;4936032;29;20571;-79
2022/08/12 04:16:05;;;;;;;8.20;7.43;;;13.80;99.90;;;;;;4933789;29;20039;-79
2022/08/12 04:18:31;;;;;;;8.73;7.95;;;13.80;99.90;;;;;;4934772;29;20043;-79
2022/08/12 04:20:57;;;;;;;8.25;7.25;;;13.80;99.90;;;;;;4920092;29;20507;-79
2022/08/12 04:23:24;;;;;;;10.80;8.65;;;13.80;99.90;;;;;;4922443;29;20035;-79
2022/08/12 04:25:50;;;;;;;9.00;8.15;;;13.70;99.90;;;;;;4938957;29;20042;-79
2022/08/12 04:28:24;;;;;;;9.40;8.35;;;13.70;99.90;;;;;;4921908;29;20042;-79
2022/08/12 04:30:50;;;;;;;8.85;7.95;;;13.70;99.90;;;;;;4939519;29;20496;-79
2022/08/12 04:33:18;;;;;;;9.32;8.43;;;13.70;99.90;;;;;;4939449;29;20082;-79
2022/08/12 04:35:43;;;;;;;9.07;8.18;;;13.70;99.90;;;;;;4937619;29;20069;-79
2022/08/12 04:38:10;;;;;;;9.65;8.75;;;13.70;99.90;;;;;;4937846;29;20050;-79
2022/08/12 04:40:35;;;;;;;9.05;8.15;;;13.70;99.90;;;;;;4939070;29;20504;-79
2022/08/12 04:43:01;;;;;;;8.93;7.95;;;13.80;99.90;;;;;;4923517;29;20051;-79
2022/08/12 04:45:29;;;;;;;10.13;9.13;;;13.70;99.90;;;;;;4939286;29;20472;-79
2022/08/12 04:47:55;;;;;;;10.10;9.13;;;13.70;99.90;;;;;;4938016;29;20133;-79
2022/08/12 04:50:21;;;;;;;9.15;8.10;;;13.70;99.90;;;;;;4922337;29;20146;-78
2022/08/12 04:52:48;;;;;;;9.52;8.52;;;13.70;99.90;;;;;;4937609;29;20568;-79
2022/08/12 04:55:15;;;;;;;9.02;8.23;;;13.70;99.90;;;;;;4955114;29;20389;-79
2022/08/12 04:57:41;;;;;;;9.05;8.15;;;13.80;99.90;;;;;;4937943;29;20126;-79
2022/08/12 05:00:12;;;;;;;9.70;8.48;;;13.80;99.90;;;;;;4938739;29;20182;-79
2022/08/12 05:02:38;;;;;;;10.05;9.05;;;13.80;99.90;;;;;;4921695;29;20047;-79
2022/08/12 05:05:07;;;;;;;9.95;9.05;;;13.80;99.90;;;;;;4937685;29;20040;-79
2022/08/12 05:07:34;;;;;;;10.40;9.48;;;13.90;99.90;;;;;;4923134;29;20607;-79
2022/08/12 05:10:00;;;;;;;10.68;9.57;;;14.00;99.90;;;;;;4937888;29;20034;-79
2022/08/12 05:12:35;;;;;;;13.25;9.95;;;14.00;99.90;;;;;;4922857;29;20035;-79
2022/08/12 05:15:02;;;;;;;10.93;9.85;;;14.00;99.90;;;;;;4923251;29;20459;-79
2022/08/12 05:17:28;;;;;;;13.05;11.48;;;14.10;99.90;;;;;;4922188;29;20517;-79
2022/08/12 05:19:54;;;;;;;12.63;11.00;;;14.30;99.90;;;;;;4925126;29;20328;-79
2022/08/12 05:22:19;;;;;;;11.48;9.95;;;14.30;99.90;;;;;;4922915;29;20035;-79
2022/08/12 05:24:46;;;;;;;12.60;10.38;;;14.40;99.90;;;;;;4936437;29;20133;-80
2022/08/12 05:27:12;;;;;;;11.35;10.15;;;14.60;99.90;;;;;;4938293;29;20039;-80
2022/08/12 05:29:39;;;;;;;11.30;9.52;;;14.80;99.90;;;;;;4937659;29;20089;-79
2022/08/12 05:32:06;;;;;;;11.13;9.07;;;15.10;99.90;;;;;;4937852;29;20043;-80
2022/08/12 05:34:33;;;;;;;9.70;8.70;;;15.30;99.90;;;;;;4936524;29;20043;-80
2022/08/12 05:37:00;;;;;;;9.30;8.02;;;15.50;99.90;;;;;;4936322;28;20428;-80
2022/08/12 05:39:25;;;;;;;8.85;7.95;;;15.70;99.90;;;;;;4921230;29;20039;-81
2022/08/12 05:41:52;;;;;;;9.55;8.32;;;15.90;99.90;;;;;;4921545;29;20031;-76
2022/08/12 05:44:18;;;;;;;9.05;8.07;;;16.10;99.90;;;;;;4954138;29;20051;-77
2022/08/12 05:46:44;;;;;;;8.65;7.65;;;16.30;99.90;;;;;;4933588;29;20038;-77
2022/08/12 05:49:09;;;;;;;8.00;7.20;;;16.40;99.90;;;;;;4947039;29;20094;-77
2022/08/12 05:51:36;;;;;;;7.82;6.90;;;16.60;99.90;;;;;;4937862;29;20035;-77
2022/08/12 05:54:03;;;;;;;8.52;7.00;;;16.70;99.90;;;;;;4938006;29;20043;-77
2022/08/12 05:56:32;;;;;;;8.20;7.00;;;16.90;99.90;;;;;;4936182;29;20503;-77
2022/08/12 05:59:00;;;;;;;8.18;6.85;;;17.10;99.90;;;;;;4911183;29;20059;-77
2022/08/12 06:01:26;;;;;;;8.55;6.80;;;17.20;99.90;;;;;;4935658;29;20067;-77
2022/08/12 06:03:53;;;;;;;8.10;6.35;;;17.40;99.90;;;;;;4919688;29;20027;-77
2022/08/12 06:06:20;;;;;;;11.00;6.70;;;17.50;99.90;;;;;;4931035;29;20043;-77
2022/08/12 06:08:47;;;;;;;7.60;6.13;;;17.60;99.90;;;;;;4936282;29;20050;-75
2022/08/12 06:11:17;;;;;;;6.80;6.10;;;17.70;99.90;;;;;;4936119;29;20035;-77
2022/08/12 06:13:44;;;;;;;6.60;5.90;;;17.90;99.90;;;;;;4934822;29;20459;-77
2022/08/12 06:16:13;;;;;;;6.57;5.45;;;18.00;99.90;;;;;;4930763;29;20046;-77
2022/08/12 06:18:40;;;;;;;7.30;5.63;;;18.10;99.90;;;;;;4936261;29;20075;-77
2022/08/12 06:21:17;;;;;;;7.65;5.75;;;18.20;99.90;;;;;;4920646;29;20054;-77
2022/08/12 06:23:44;;;;;;;5.95;5.20;;;18.40;99.90;;;;;;4935644;29;20043;-77
2022/08/12 06:26:11;;;;;;;8.20;5.35;;;18.50;99.90;;;;;;4934197;29;20042;-77
2022/08/12 06:28:44;;;;;;;7.47;5.10;;;18.70;99.90;;;;;;4935933;29;20051;-77
2022/08/12 06:31:17;;;;;;;8.35;5.00;;;18.80;99.90;;;;;;4919264;29;20039;-77
2022/08/12 06:33:47;;;;;;;5.63;4.85;;;18.90;99.90;;;;;;4921166;29;20094;-77
2022/08/12 06:36:16;;;;;;;6.78;4.85;;;19.00;99.90;;;;;;4921430;29;20565;-78
2022/08/12 06:38:43;;;;;;;8.27;4.65;;;19.10;99.90;;;;;;4934959;29;20779;-78
2022/08/12 06:43:54;;;;;;;5.88;4.38;;;19.30;99.90;;;;;;4936941;29;20050;-77
2022/08/12 06:46:20;;;;;;;6.55;4.60;;;19.50;99.90;;;;;;4919674;29;20043;-77
2022/08/12 06:48:46;;;;;;;6.63;4.20;;;19.60;99.90;;;;;;4920722;29;20090;-77
2022/08/12 06:51:12;;;;;;;5.20;3.72;;;19.80;99.90;;;;;;4920225;29;20039;-77
2022/08/12 06:53:38;;;;;;;6.40;4.40;;;19.90;99.90;;;;;;4935522;29;20050;-77
2022/08/12 06:56:03;;;;;;;5.63;4.03;;;20.00;99.90;;;;;;4921490;29;20035;-79
2022/08/12 06:58:30;;;;;;;5.50;3.95;;;20.10;99.90;;;;;;4934444;29;20134;-81
2022/08/12 07:00:57;;;;;;;4.65;3.65;;;20.20;99.90;;;;;;4919597;29;20102;-81
2022/08/12 07:03:27;;;;;;;5.32;3.70;;;20.20;99.90;;;;;;4920401;29;20058;-81
2022/08/12 07:05:59;;;;;;;4.47;3.35;;;20.40;99.90;;;;;;4951931;29;20082;-81
2022/08/12 07:08:30;;;;;;;5.50;3.95;;;20.50;99.90;;;;;;4934807;29;20069;-80
2022/08/12 07:11:02;;;;;;;10.20;4.30;;;20.60;99.90;;;;;;4935431;29;20522;-83
2022/08/12 07:13:42;;;;;;;7.70;4.45;;;20.70;99.90;;;;;;4918876;29;20205;-81
2022/08/12 07:16:09;;;;;;;6.47;3.80;;;20.90;99.90;;;;;;4914605;29;20043;-81
2022/08/12 07:18:35;;;;;;;4.97;3.40;;;21.00;99.90;;;;;;4920330;29;20043;-81
2022/08/12 07:21:02;;;;;;;4.85;3.80;;;21.00;99.90;;;;;;4919941;29;20042;-81
2022/08/12 07:23:29;;;;;;;4.35;3.42;;;21.10;99.90;;;;;;4936441;29;20411;-81
2022/08/12 07:25:56;;;;;;;5.72;4.13;;;21.20;99.90;;;;;;4936572;29;20043;-81
2022/08/12 07:28:26;;;;;;;3.47;3.17;;;21.30;99.90;;;;;;4920107;29;20047;-81
2022/08/12 07:30:53;;;;;;;4.38;3.17;;;21.50;97.90;;;;;;4920503;29;20039;-81
2022/08/12 07:33:24;;;;;;;5.35;2.90;;;21.60;97.40;;;;;;4920686;29;20050;-81
2022/08/12 07:35:52;;;;;;;4.70;3.28;;;21.80;96.70;;;;;;4920757;29;20051;-81
2022/08/12 07:38:32;;;;;;;4.28;3.33;;;21.90;95.00;;;;;;4919490;29;20514;-81
2022/08/12 07:41:20;;;;;;;4.88;3.05;;;22.10;94.10;;;;;;4917561;29;20051;-81
2022/08/12 07:43:55;;;;;;;4.05;2.92;;;22.20;93.90;;;;;;4902284;29;20035;-81
2022/08/12 07:46:24;;;;;;;5.30;3.25;;;22.30;93.70;;;;;;4936550;29;20396;-81
2022/08/12 07:48:55;;;;;;;3.75;2.90;;;22.40;92.00;;;;;;4936130;29;20081;-80
2022/08/12 07:51:23;;;;;;;5.25;3.10;;;22.50;92.20;;;;;;4920648;29;20035;-81
2022/08/12 07:53:49;;;;;;;4.57;3.20;;;22.70;91.00;;;;;;4934726;29;20190;-81
2022/08/12 07:56:17;;;;;;;5.10;3.10;;;22.80;90.60;;;;;;4920783;29;20043;-81
2022/08/12 07:58:43;;;;;;;6.82;3.17;;;22.90;89.50;;;;;;4922568;29;20094;-81
2022/08/12 08:01:14;;;;;;;4.20;2.80;;;23.00;88.40;;;;;;4921627;29;20332;-80
2022/08/12 08:04:54;;;;;;;5.78;2.90;;;23.10;86.80;;;;;;4921038;29;20035;-78
2022/08/12 08:06:30;;;;;;;5.53;2.72;;;23.20;86.60;;;;;;4936338;29;20047;-81
2022/08/12 08:08:59;;;;;;;5.57;2.90;;;23.30;86.60;;;;;;4930863;29;20058;-79
2022/08/12 08:14:09;;;;;;;10.77;3.53;;;23.60;84.80;;;;;;4938284;29;20559;-79
2022/08/12 08:16:39;;;;;;;3.45;2.60;;;23.70;84.20;;;;;;4933816;29;20059;-80
2022/08/12 08:19:06;;;;;;;8.05;2.88;;;23.90;83.50;;;;;;4938963;29;20043;-81
2022/08/12 08:21:34;;;;;;;5.05;2.60;;;24.00;82.50;;;;;;4922880;29;20149;-84
2022/08/12 08:24:15;;;;;;;5.18;2.75;;;24.20;82.00;;;;;;4937363;29;20094;-81
2022/08/12 08:26:42;;;;;;;3.42;2.97;;;24.50;81.40;;;;;;4921891;29;20039;-80
2022/08/12 08:29:08;;;;;;;3.20;2.58;;;25.20;81.70;;;;;;4922112;29;20067;-80
2022/08/12 08:31:34;;;;;;;6.30;2.70;;;26.10;80.00;;;;;;4922144;29;20129;-82
2022/08/12 08:34:00;;;;;;;4.18;2.40;;;26.90;78.10;;;;;;4936925;29;20097;-80
2022/08/12 08:36:26;;;;;;;3.88;2.65;;;27.80;78.20;;;;;;4936261;29;20102;-81
2022/08/12 08:38:52;;;;;;;4.03;2.50;;;28.60;76.50;;;;;;4938440;29;20519;-80
2022/08/12 08:44:02;;;;;;;2.55;2.20;;;29.90;73.30;;;;;;4937751;29;20050;-81
2022/08/12 08:46:28;;;;;;;3.20;2.10;;;30.60;70.70;;;;;;4922382;29;20416;-82
2022/08/12 08:48:55;;;;;;;2.80;1.98;;;30.90;67.60;;;;;;4920701;29;20141;-80
2022/08/12 08:51:24;;;;;;;2.72;1.90;;;31.20;64.50;;;;;;4922630;29;20527;-82
2022/08/12 08:53:52;;;;;;;2.75;1.90;;;31.30;62.80;;;;;;4939374;29;20047;-82
2022/08/12 08:56:18;;;;;;;3.80;2.00;;;31.50;60.60;;;;;;4939202;29;20471;-82
2022/08/12 08:58:44;;;;;;;3.70;2.15;;;31.60;59.50;;;;;;4937356;29;20040;-84
2022/08/12 09:01:10;;;;;;;2.70;1.95;;;31.70;58.40;;;;;;4922064;29;20115;-77
2022/08/12 09:03:36;;;;;;;10.05;2.35;;;31.90;58.50;;;;;;4938994;29;20039;-77
2022/08/12 09:06:02;;;;;;;4.05;2.38;;;32.10;56.90;;;;;;4938356;29;20491;-77
2022/08/12 09:08:28;;;;;;;2.75;1.92;;;32.20;55.80;;;;;;4936027;29;20142;-79
2022/08/12 09:13:26;;;;;;;2.85;2.00;;;32.10;55.60;;;;;;4934121;29;20094;-78
2022/08/12 09:13:39;;;;;;;4.47;2.20;;;32.20;56.60;;;;;;4936786;29;20142;-77
2022/08/12 09:16:05;;;;;;;2.20;1.90;;;32.50;57.10;;;;;;4920650;29;20793;-76
2022/08/12 09:18:33;;;;;;;2.75;1.90;;;32.80;55.40;;;;;;4937253;29;20086;-76
2022/08/12 09:20:59;;;;;;;2.10;1.77;;;33.00;54.60;;;;;;4938354;29;20039;-76
2022/08/12 09:23:26;;;;;;;4.25;2.03;;;33.00;54.20;;;;;;4935993;29;20630;-78
2022/08/12 09:25:52;;;;;;;2.20;2.00;;;33.00;52.90;;;;;;4937171;29;20043;-78
2022/08/12 09:28:19;;;;;;;3.55;2.08;;;33.00;52.80;;;;;;4937581;29;20046;-78
2022/08/12 09:30:47;;;;;;;3.90;1.90;;;33.10;52.30;;;;;;4937928;29;20070;-81
2022/08/12 09:33:13;;;;;;;3.05;2.00;;;33.20;51.80;;;;;;4918471;29;20042;-79
2022/08/12 09:35:43;;;;;;;2.10;1.90;;;33.10;50.80;;;;;;4921675;29;20110;-77
2022/08/12 09:38:18;;;;;;;2.08;1.77;;;33.10;51.40;;;;;;4938529;29;20097;-80
2022/08/12 09:40:44;;;;;;;2.85;1.70;;;33.20;50.90;;;;;;4937580;29;20035;-79
2022/08/12 09:45:56;;;;;;;3.50;1.88;;;33.70;51.40;;;;;;4938120;29;20050;-81
2022/08/12 09:48:21;;;;;;;4.60;2.10;;;33.90;48.60;;;;;;4922225;29;20043;-79
2022/08/12 09:50:49;;;;;;;3.17;1.83;;;33.70;49.60;;;;;;4938503;29;20506;-79
2022/08/12 09:53:17;;;;;;;2.63;1.63;;;33.70;48.90;;;;;;4936191;29;20054;-77
2022/08/12 09:55:51;;;;;;;3.47;2.47;;;33.60;48.80;;;;;;4922688;29;20036;-78
2022/08/12 09:58:18;;;;;;;3.20;1.95;;;33.60;48.50;;;;;;4936487;29;20043;-79
2022/08/12 10:00:45;;;;;;;6.05;2.00;;;33.60;48.00;;;;;;4921345;29;20495;-79
2022/08/12 10:03:13;;;;;;;2.10;1.90;;;33.60;45.70;;;;;;4919615;29;20039;-79
2022/08/12 10:05:44;;;;;;;2.97;2.00;;;33.50;46.40;;;;;;4953809;29;20074;-78
2022/08/12 10:08:14;;;;;;;3.95;1.88;;;33.40;44.50;;;;;;4936933;29;20435;-77
2022/08/12 10:13:41;;;;;;;2.92;1.90;;;33.20;44.60;;;;;;4937081;29;20081;-79
2022/08/12 10:16:28;;;;;;;5.43;1.90;;;33.10;44.90;;;;;;4935312;29;20411;-78
2022/08/12 10:19:01;;;;;;;1.95;1.80;;;33.00;45.00;;;;;;4934282;29;20042;-79
2022/08/12 10:21:39;;;;;;;2.08;1.70;;;33.10;44.90;;;;;;4936649;29;20087;-81
2022/08/12 10:24:14;;;;;;;3.88;2.78;;;33.10;45.40;;;;;;4921543;29;20051;-81
2022/08/12 10:29:46;;;;;;;2.42;1.70;;;33.40;45.70;;;;;;4946736;29;20396;-84
2022/08/12 10:33:08;;;;;;;4.03;1.65;;;33.70;43.30;;;;;;4921141;29;20042;-80
2022/08/12 10:36:41;;;;;;;5.38;1.98;;;33.70;44.60;;;;;;4906922;29;20180;-80
2022/08/12 10:43:54;;;;;;;2.83;1.50;;;34.20;42.20;;;;;;4877288;29;20132;-79
2022/08/12 10:46:37;;;;;;;2.42;1.55;;;34.20;43.20;;;;;;4898125;29;20290;-79
2022/08/12 10:49:04;;;;;;;1.70;1.60;;;34.20;42.40;;;;;;4898241;29;20054;-80
2022/08/12 10:52:30;;;;;;;3.58;1.85;;;34.20;41.40;;;;;;4922739;29;20032;-80
2022/08/12 10:55:15;;;;;;;2.00;1.70;;;34.00;41.90;;;;;;4940450;29;20090;-80
2022/08/12 11:12:25;;;;;;;2.45;1.60;;;34.00;41.40;;;;;;4951180;29;20050;-79
2022/08/12 11:14:56;;;;;;;3.28;1.65;;;34.40;42.60;;;;;;4938431;29;20039;-80
2022/08/12 11:17:22;;;;;;;1.98;1.60;;;34.60;42.10;;;;;;4920523;29;20031;-81
2022/08/12 11:19:47;;;;;;;2.45;1.60;;;34.70;41.20;;;;;;4921099;29;20039;-81
2022/08/12 11:22:14;;;;;;;2.90;1.48;;;34.70;41.30;;;;;;4922579;29;20039;-80
2022/08/12 11:24:43;;;;;;;1.50;1.20;;;34.60;42.40;;;;;;4920747;29;20042;-80
2022/08/12 11:31:08;;;;;;;4.47;1.60;;;35.40;42.10;;;;;;4953096;29;20045;-80
2022/08/12 11:34:02;;;;;;;3.00;1.70;;;35.90;41.10;;;;;;4936489;29;20035;-81
2022/08/12 11:40:50;;;;;;;4.70;1.70;;;35.60;39.00;;;;;;4948331;29;20395;-80
2022/08/12 11:43:16;;;;;;;3.70;1.65;;;35.60;42.00;;;;;;4920950;29;20502;-79
2022/08/12 11:45:42;;;;;;;1.65;1.40;;;35.80;39.90;;;;;;4936433;29;20043;-80
2022/08/12 11:48:09;;;;;;;1.80;1.50;;;35.60;39.10;;;;;;4936106;29;20134;-80
2022/08/12 11:50:35;;;;;;;1.58;1.48;;;35.50;39.50;;;;;;4920310;29;20039;-81
2022/08/12 11:53:01;;;;;;;3.85;1.77;;;35.40;41.90;;;;;;4921896;29;20297;-79
2022/08/12 11:55:28;;;;;;;1.75;1.50;;;35.50;41.80;;;;;;4917581;29;20082;-79
2022/08/12 11:57:55;;;;;;;1.90;1.60;;;35.70;40.80;;;;;;4950884;28;20043;-79
2022/08/12 12:00:21;;;;;;;2.50;1.85;;;35.90;41.00;;;;;;4936852;29;20519;-80
2022/08/12 12:02:47;;;;;;;2.28;1.60;;;36.00;39.70;;;;;;4921684;29;20047;-80
2022/08/12 12:05:15;;;;;;;2.03;1.75;;;35.90;39.00;;;;;;4937538;29;20446;-79
2022/08/12 12:07:43;;;;;;;3.50;1.55;;;35.70;39.80;;;;;;4935539;29;20039;-80
2022/08/12 12:10:11;;;;;;;2.75;1.60;;;35.80;39.80;;;;;;4921195;29;20042;-79
2022/08/12 12:12:37;;;;;;;1.70;1.60;;;35.90;39.10;;;;;;4922211;29;20063;-80
2022/08/12 12:15:05;;;;;;;3.38;1.77;;;35.90;39.70;;;;;;4923124;29;20377;-80
2022/08/12 12:17:38;;;;;;;2.10;1.90;;;36.00;39.10;;;;;;4935711;29;20039;-81
2022/08/12 12:20:09;;;;;;;2.25;1.75;;;35.90;38.50;;;;;;4937933;29;20039;-79
2022/08/12 12:22:40;;;;;;;3.10;1.70;;;35.70;39.50;;;;;;4921862;29;20123;-79
2022/08/12 12:25:07;;;;;;;2.65;1.70;;;35.80;39.60;;;;;;4938296;29;20087;-80
2022/08/12 12:27:53;;;;;;;4.32;1.67;;;36.00;39.20;;;;;;4938192;29;20122;-79
2022/08/12 12:30:20;;;;;;;2.40;1.75;;;36.10;38.20;;;;;;4921344;29;20503;-79
2022/08/12 12:32:45;;;;;;;2.13;1.73;;;35.90;38.30;;;;;;4949998;29;20054;-79
2022/08/12 12:35:12;;;;;;;2.20;2.00;;;35.90;37.60;;;;;;4922777;29;20035;-80
2022/08/12 12:38:01;;;;;;;2.70;1.67;;;35.60;38.60;;;;;;4938267;29;20520;-79
2022/08/12 12:40:28;;;;;;;2.35;1.65;;;35.40;39.60;;;;;;4937703;29;20091;-79
2022/08/12 12:42:54;;;;;;;3.72;1.80;;;35.40;39.20;;;;;;4938067;29;20178;-79
2022/08/12 12:45:21;;;;;;;2.90;1.60;;;35.30;38.80;;;;;;4940834;29;20087;-79
2022/08/12 12:47:52;;;;;;;2.20;1.60;;;35.40;38.90;;;;;;4939605;29;20049;-79
2022/08/12 12:50:18;;;;;;;2.75;1.40;;;35.50;39.90;;;;;;4940061;29;20039;-79
2022/08/12 12:52:44;;;;;;;2.15;1.40;;;35.80;39.30;;;;;;4941445;29;20153;-79
2022/08/12 12:55:10;;;;;;;2.00;1.63;;;35.90;38.70;;;;;;4926457;29;20047;-78
2022/08/12 12:57:39;;;;;;;2.20;1.80;;;35.90;37.70;;;;;;4928684;29;20567;-80
2022/08/12 13:00:16;;;;;;;3.47;1.83;;;35.70;38.40;;;;;;4923990;29;20034;-79
2022/08/12 13:02:49;;;;;;;1.77;1.48;;;35.60;38.20;;;;;;4924944;29;20050;-79
2022/08/12 13:05:17;;;;;;;3.22;1.60;;;35.50;38.70;;;;;;4942323;29;20449;-78
2022/08/12 13:07:43;;;;;;;1.75;1.65;;;35.60;39.60;;;;;;4924897;29;20043;-79
2022/08/12 13:10:09;;;;;;;5.90;1.80;;;35.70;38.80;;;;;;4940140;29;20435;-78
2022/08/12 13:12:35;;;;;;;3.25;1.70;;;35.80;39.20;;;;;;4923346;29;20118;-78
2022/08/12 13:15:02;;;;;;;3.17;1.83;;;36.00;38.20;;;;;;4940745;29;20114;-78
2022/08/12 13:17:30;;;;;;;3.30;1.70;;;36.10;38.40;;;;;;4923710;29;20074;-78
2022/08/12 13:20:05;;;;;;;1.98;1.50;;;36.40;38.50;;;;;;4913240;29;20496;-78
2022/08/12 13:22:31;;;;;;;1.58;1.35;;;36.60;38.50;;;;;;4939185;29;20090;-79
2022/08/12 13:24:58;;;;;;;1.70;1.60;;;36.80;38.70;;;;;;4931542;29;20480;-78
2022/08/12 13:27:46;;;;;;;3.20;1.80;;;37.00;38.50;;;;;;4939010;29;20031;-78
2022/08/12 13:30:15;;;;;;;2.67;1.70;;;37.10;37.00;;;;;;4939427;29;20036;-78
2022/08/12 13:32:44;;;;;;;2.60;1.75;;;36.90;38.30;;;;;;4935998;29;20067;-78
2022/08/12 13:35:10;;;;;;;2.38;1.92;;;36.90;37.10;;;;;;4940207;29;20134;-79
2022/08/12 13:37:37;;;;;;;3.03;1.80;;;36.60;36.90;;;;;;4939171;29;20047;-79
2022/08/12 13:40:03;;;;;;;2.75;1.98;;;36.40;36.60;;;;;;4923967;29;20042;-81
2022/08/12 13:42:29;;;;;;;2.28;1.98;;;36.10;36.70;;;;;;4939977;29;20055;-79
2022/08/12 13:44:56;;;;;;;2.05;1.70;;;35.90;37.50;;;;;;4935990;29;20448;-79
2022/08/12 13:47:23;;;;;;;3.83;1.83;;;36.00;37.90;;;;;;4917799;29;20042;-80
2022/08/12 13:49:50;;;;;;;2.30;1.77;;;36.10;37.70;;;;;;4937392;29;20035;-79
2022/08/12 13:52:19;;;;;;;2.00;1.67;;;36.10;37.10;;;;;;4938621;29;20040;-80
2022/08/12 13:54:46;;;;;;;2.53;1.67;;;36.00;36.70;;;;;;4922658;29;20035;-78
2022/08/12 13:57:14;;;;;;;2.92;1.63;;;35.90;38.20;;;;;;4939112;29;20039;-78
2022/08/12 13:59:40;;;;;;;2.15;1.75;;;35.90;37.90;;;;;;4939451;29;20035;-78
2022/08/12 14:02:09;;;;;;;1.83;1.73;;;36.00;37.90;;;;;;4939041;29;20039;-77
2022/08/12 14:04:35;;;;;;;2.38;1.73;;;36.30;38.80;;;;;;4922391;29;20043;-78
2022/08/12 14:07:04;;;;;;;2.13;1.85;;;36.60;38.70;;;;;;4954296;28;20542;-78
2022/08/12 14:10:34;;;;;;;3.10;2.17;;;36.70;37.40;;;;;;4954434;29;20485;-79
2022/08/12 14:12:17;;;;;;;2.65;2.03;;;36.60;37.20;;;;;;4939394;29;20043;-79
2022/08/12 14:14:49;;;;;;;3.35;2.00;;;36.40;37.50;;;;;;4939734;29;20043;-78
2022/08/12 14:17:16;;;;;;;1.67;1.58;;;36.40;37.50;;;;;;4922585;29;20130;-78
2022/08/12 14:20:12;;;;;;;2.92;1.77;;;36.30;38.30;;;;;;4936780;29;20492;-78
2022/08/12 14:22:28;;;;;;;2.10;1.73;;;36.50;37.60;;;;;;4938287;29;20188;-79
2022/08/12 14:24:54;;;;;;;3.17;2.00;;;36.50;36.90;;;;;;4924139;29;20043;-78
2022/08/12 14:27:27;;;;;;;2.33;1.83;;;36.40;36.80;;;;;;4938099;29;20074;-78
2022/08/12 14:29:53;;;;;;;4.20;1.95;;;36.30;37.70;;;;;;4937650;29;20493;-78
2022/08/12 14:32:19;;;;;;;2.30;1.90;;;36.20;37.70;;;;;;4922998;29;20043;-78
2022/08/12 14:34:51;;;;;;;3.05;1.92;;;36.20;37.90;;;;;;4922882;29;20607;-79
2022/08/12 14:37:21;;;;;;;2.17;1.80;;;36.20;38.00;;;;;;4953522;28;20043;-78
2022/08/12 14:39:46;;;;;;;3.35;2.15;;;36.20;38.00;;;;;;4922450;29;20042;-78
2022/08/12 14:42:12;;;;;;;3.78;1.98;;;36.20;37.80;;;;;;4923163;29;20027;-79
2022/08/12 14:44:38;;;;;;;2.75;1.90;;;36.10;37.60;;;;;;4935801;29;20054;-77
2022/08/12 14:47:04;;;;;;;9.23;2.58;;;35.90;37.90;;;;;;4937425;28;20031;-78
2022/08/12 14:49:29;;;;;;;2.78;2.20;;;35.80;38.20;;;;;;4923612;29;20039;-78
2022/08/12 14:51:56;;;;;;;3.17;2.20;;;35.70;37.30;;;;;;4922797;29;20114;-78
2022/08/12 14:54:21;;;;;;;3.50;2.05;;;35.50;37.70;;;;;;4921638;29;20054;-79
2022/08/12 14:56:50;;;;;;;2.35;1.77;;;35.30;36.90;;;;;;4938283;29;20046;-78
2022/08/12 15:02:00;;;;;;;2.38;1.73;;;34.60;38.40;;;;;;4918636;29;20139;-78
2022/08/12 15:04:27;;;;;;;2.75;2.08;;;34.40;38.40;;;;;;4918921;29;20457;-78
2022/08/12 15:06:53;;;;;;;2.95;2.28;;;34.20;38.60;;;;;;4920273;28;20031;-78
2022/08/12 15:09:19;;;;;;;2.22;2.03;;;34.00;37.80;;;;;;4937760;29;20050;-77
2022/08/12 15:11:48;;;;;;;2.70;1.73;;;33.70;38.70;;;;;;4937977;29;20035;-78
2022/08/12 15:14:14;;;;;;;3.25;2.13;;;33.30;38.40;;;;;;4920988;29;20053;-79